sensor_id;sensor_type;location;lat;lon;timestamp;temperature;humidity
584;HTU21D;27024;54.068;12.116;2022-12-20T00:01:23;4.15;118.99
584;HTU21D;27024;54.068;12.116;2022-12-20T00:03:52;4.14;118.99
584;HTU21D;27024;54.068;12.116;2022-12-20T00:06:19;4.18;118.99
584;HTU21D;27024;54.068;12.116;2022-12-20T00:08:52;4.21;118.99
584;HTU21D;27024;54.068;12.116;2022-12-20T00:11:19;4.27;118.99
584;HTU21D;27024;54.068;12.116;2022-12-20T00:13:46;4.28;118.99
584;HTU21D;27024;54.068;12.116;2022-12-20T00:16:24;4.21;118.99
584;HTU21D;27024;54.068;12.116;2022-12-20T00:18:52;4.26;118.99
584;HTU21D;27024;54.068;12.116;2022-12-20T00:21:19;4.29;118.99
584;HTU21D;27024;54.068;12.116;2022-12-20T00:23:45;4.28;118.99
584;HTU21D;27024;54.068;12.116;2022-12-20T00:26:16;4.34;118.99
584;HTU21D;27024;54.068;12.116;2022-12-20T00:28:44;4.33;118.99
584;HTU21D;27024;54.068;12.116;2022-12-20T00:31:13;4.32;118.99
584;HTU21D;27024;54.068;12.116;2022-12-20T00:33:43;4.32;118.99
584;HTU21D;27024;54.068;12.116;2022-12-20T00:36:10;4.29;118.99
584;HTU21D;27024;54.068;12.116;2022-12-20T00:38:37;4.33;118.99
584;HTU21D;27024;54.068;12.116;2022-12-20T00:41:05;4.35;118.99
584;HTU21D;27024;54.068;12.116;2022-12-20T00:43:33;4.36;118.99
584;HTU21D;27024;54.068;12.116;2022-12-20T00:46:00;4.34;118.99
584;HTU21D;27024;54.068;12.116;2022-12-20T00:48:28;4.32;118.99
584;HTU21D;27024;54.068;12.116;2022-12-20T00:51:06;4.41;118.99
584;HTU21D;27024;54.068;12.116;2022-12-20T00:53:34;4.36;118.99
584;HTU21D;27024;54.068;12.116;2022-12-20T00:56:01;4.42;118.99
584;HTU21D;27024;54.068;12.116;2022-12-20T00:58:30;4.46;118.99
584;HTU21D;27024;54.068;12.116;2022-12-20T01:00:57;4.45;118.99
584;HTU21D;27024;54.068;12.116;2022-12-20T01:03:25;4.50;118.99
584;HTU21D;27024;54.068;12.116;2022-12-20T01:05:57;4.56;118.99
584;HTU21D;27024;54.068;12.116;2022-12-20T01:08:26;4.62;118.99
584;HTU21D;27024;54.068;12.116;2022-12-20T01:11:01;4.65;118.99
584;HTU21D;27024;54.068;12.116;2022-12-20T01:13:29;4.68;118.99
584;HTU21D;27024;54.068;12.116;2022-12-20T01:15:57;4.72;118.99
584;HTU21D;27024;54.068;12.116;2022-12-20T01:18:28;4.75;118.99
584;HTU21D;27024;54.068;12.116;2022-12-20T01:21:00;4.76;118.99
584;HTU21D;27024;54.068;12.116;2022-12-20T01:23:28;4.74;118.99
584;HTU21D;27024;54.068;12.116;2022-12-20T01:25:57;4.78;118.99
584;HTU21D;27024;54.068;12.116;2022-12-20T01:28:24;4.80;118.99
584;HTU21D;27024;54.068;12.116;2022-12-20T01:30:50;4.78;118.99
584;HTU21D;27024;54.068;12.116;2022-12-20T01:33:17;4.76;118.99
584;HTU21D;27024;54.068;12.116;2022-12-20T01:35:58;4.72;118.99
584;HTU21D;27024;54.068;12.116;2022-12-20T01:38:26;4.65;118.99
584;HTU21D;27024;54.068;12.116;2022-12-20T01:40:53;4.67;118.99
584;HTU21D;27024;54.068;12.116;2022-12-20T01:43:21;4.67;118.99
584;HTU21D;27024;54.068;12.116;2022-12-20T01:45:49;4.65;118.99
584;HTU21D;27024;54.068;12.116;2022-12-20T01:48:21;4.63;118.99
584;HTU21D;27024;54.068;12.116;2022-12-20T01:50:49;4.56;118.99
584;HTU21D;27024;54.068;12.116;2022-12-20T01:53:17;4.53;118.99
584;HTU21D;27024;54.068;12.116;2022-12-20T01:55:46;4.54;118.99
584;HTU21D;27024;54.068;12.116;2022-12-20T01:58:14;4.47;118.99
584;HTU21D;27024;54.068;12.116;2022-12-20T02:00:41;4.39;118.99
584;HTU21D;27024;54.068;12.116;2022-12-20T02:03:11;4.39;118.99
584;HTU21D;27024;54.068;12.116;2022-12-20T02:05:43;4.34;118.99
584;HTU21D;27024;54.068;12.116;2022-12-20T02:08:15;4.27;118.99
584;HTU21D;27024;54.068;12.116;2022-12-20T02:13:26;4.21;118.99
584;HTU21D;27024;54.068;12.116;2022-12-20T02:15:58;4.19;118.99
584;HTU21D;27024;54.068;12.116;2022-12-20T02:21:05;4.16;118.99
584;HTU21D;27024;54.068;12.116;2022-12-20T02:31:44;4.30;118.99
584;HTU21D;27024;54.068;12.116;2022-12-20T02:34:13;4.30;118.99
584;HTU21D;27024;54.068;12.116;2022-12-20T02:36:41;4.35;118.99
584;HTU21D;27024;54.068;12.116;2022-12-20T02:39:11;4.37;118.99
584;HTU21D;27024;54.068;12.116;2022-12-20T02:41:44;4.41;118.99
584;HTU21D;27024;54.068;12.116;2022-12-20T02:44:14;4.46;118.99
584;HTU21D;27024;54.068;12.116;2022-12-20T02:47:04;4.44;118.99
584;HTU21D;27024;54.068;12.116;2022-12-20T02:49:33;4.47;118.99
584;HTU21D;27024;54.068;12.116;2022-12-20T02:52:04;4.46;118.99
584;HTU21D;27024;54.068;12.116;2022-12-20T02:54:32;4.48;118.99
584;HTU21D;27024;54.068;12.116;2022-12-20T02:57:10;4.53;118.99
584;HTU21D;27024;54.068;12.116;2022-12-20T02:59:50;4.58;118.99
584;HTU21D;27024;54.068;12.116;2022-12-20T03:02:21;4.58;118.99
584;HTU21D;27024;54.068;12.116;2022-12-20T03:04:49;4.64;118.99
584;HTU21D;27024;54.068;12.116;2022-12-20T03:07:17;4.65;118.99
584;HTU21D;27024;54.068;12.116;2022-12-20T03:09:44;4.65;118.99
584;HTU21D;27024;54.068;12.116;2022-12-20T03:12:12;4.67;118.99
584;HTU21D;27024;54.068;12.116;2022-12-20T03:14:39;4.68;118.99
584;HTU21D;27024;54.068;12.116;2022-12-20T03:17:07;4.71;118.99
584;HTU21D;27024;54.068;12.116;2022-12-20T03:19:34;4.76;118.99
584;HTU21D;27024;54.068;12.116;2022-12-20T03:22:01;4.77;118.99
584;HTU21D;27024;54.068;12.116;2022-12-20T03:24:28;4.81;118.99
584;HTU21D;27024;54.068;12.116;2022-12-20T03:26:55;4.77;118.99
584;HTU21D;27024;54.068;12.116;2022-12-20T03:29:22;4.81;118.99
584;HTU21D;27024;54.068;12.116;2022-12-20T03:31:49;4.82;118.99
584;HTU21D;27024;54.068;12.116;2022-12-20T03:34:15;4.84;118.99
584;HTU21D;27024;54.068;12.116;2022-12-20T03:36:42;4.88;118.99
584;HTU21D;27024;54.068;12.116;2022-12-20T03:39:09;4.83;118.99
584;HTU21D;27024;54.068;12.116;2022-12-20T03:41:36;4.92;118.99
584;HTU21D;27024;54.068;12.116;2022-12-20T03:44:03;4.95;118.99
584;HTU21D;27024;54.068;12.116;2022-12-20T03:46:30;5.00;118.99
584;HTU21D;27024;54.068;12.116;2022-12-20T03:48:57;5.03;118.99
584;HTU21D;27024;54.068;12.116;2022-12-20T03:51:24;5.06;118.99
584;HTU21D;27024;54.068;12.116;2022-12-20T03:53:51;5.09;118.99
584;HTU21D;27024;54.068;12.116;2022-12-20T03:56:18;5.09;118.99
584;HTU21D;27024;54.068;12.116;2022-12-20T03:58:44;5.15;118.99
584;HTU21D;27024;54.068;12.116;2022-12-20T04:01:20;5.17;118.99
584;HTU21D;27024;54.068;12.116;2022-12-20T04:03:47;5.13;118.94
584;HTU21D;27024;54.068;12.116;2022-12-20T04:06:14;5.18;118.96
584;HTU21D;27024;54.068;12.116;2022-12-20T04:08:42;5.21;118.82
584;HTU21D;27024;54.068;12.116;2022-12-20T04:11:09;5.19;118.83
584;HTU21D;27024;54.068;12.116;2022-12-20T04:13:52;5.17;118.74
584;HTU21D;27024;54.068;12.116;2022-12-20T04:16:23;5.21;118.99
584;HTU21D;27024;54.068;12.116;2022-12-20T04:18:51;5.19;118.91
584;HTU21D;27024;54.068;12.116;2022-12-20T04:21:22;5.21;118.80
584;HTU21D;27024;54.068;12.116;2022-12-20T04:23:50;5.21;118.68
584;HTU21D;27024;54.068;12.116;2022-12-20T04:26:17;5.16;118.89
584;HTU21D;27024;54.068;12.116;2022-12-20T04:28:44;5.18;118.85
584;HTU21D;27024;54.068;12.116;2022-12-20T04:31:11;5.18;118.90
584;HTU21D;27024;54.068;12.116;2022-12-20T04:33:44;5.24;118.74
584;HTU21D;27024;54.068;12.116;2022-12-20T04:36:11;5.22;118.71
584;HTU21D;27024;54.068;12.116;2022-12-20T04:38:37;5.19;118.90
584;HTU21D;27024;54.068;12.116;2022-12-20T04:41:04;5.28;118.93
584;HTU21D;27024;54.068;12.116;2022-12-20T04:43:32;5.24;118.75
584;HTU21D;27024;54.068;12.116;2022-12-20T04:45:59;5.24;118.87
584;HTU21D;27024;54.068;12.116;2022-12-20T04:48:26;5.26;118.99
584;HTU21D;27024;54.068;12.116;2022-12-20T04:51:15;5.30;118.99
584;HTU21D;27024;54.068;12.116;2022-12-20T04:53:42;5.33;118.99
584;HTU21D;27024;54.068;12.116;2022-12-20T04:56:17;5.31;118.99
584;HTU21D;27024;54.068;12.116;2022-12-20T04:58:45;5.38;118.99
584;HTU21D;27024;54.068;12.116;2022-12-20T05:01:12;5.36;118.99
584;HTU21D;27024;54.068;12.116;2022-12-20T05:03:39;5.39;118.99
584;HTU21D;27024;54.068;12.116;2022-12-20T05:06:07;5.46;118.99
584;HTU21D;27024;54.068;12.116;2022-12-20T05:08:34;5.45;118.82
584;HTU21D;27024;54.068;12.116;2022-12-20T05:11:02;5.43;118.99
584;HTU21D;27024;54.068;12.116;2022-12-20T05:13:29;5.39;118.99
584;HTU21D;27024;54.068;12.116;2022-12-20T05:15:56;5.45;118.99
584;HTU21D;27024;54.068;12.116;2022-12-20T05:18:25;5.48;118.98
584;HTU21D;27024;54.068;12.116;2022-12-20T05:20:59;5.47;118.99
584;HTU21D;27024;54.068;12.116;2022-12-20T05:23:45;5.43;118.99
584;HTU21D;27024;54.068;12.116;2022-12-20T05:26:42;5.51;118.99
584;HTU21D;27024;54.068;12.116;2022-12-20T05:29:09;5.50;118.99
584;HTU21D;27024;54.068;12.116;2022-12-20T05:31:36;5.54;118.99
584;HTU21D;27024;54.068;12.116;2022-12-20T05:34:03;5.51;118.95
584;HTU21D;27024;54.068;12.116;2022-12-20T05:36:30;5.46;118.95
584;HTU21D;27024;54.068;12.116;2022-12-20T05:38:56;5.46;118.99
584;HTU21D;27024;54.068;12.116;2022-12-20T05:41:29;5.48;118.99
584;HTU21D;27024;54.068;12.116;2022-12-20T05:43:56;5.50;118.99
584;HTU21D;27024;54.068;12.116;2022-12-20T05:46:23;5.52;118.99
584;HTU21D;27024;54.068;12.116;2022-12-20T05:48:50;5.55;118.99
584;HTU21D;27024;54.068;12.116;2022-12-20T05:51:18;5.61;118.83
584;HTU21D;27024;54.068;12.116;2022-12-20T05:53:44;5.63;118.57
584;HTU21D;27024;54.068;12.116;2022-12-20T05:56:11;5.61;118.80
584;HTU21D;27024;54.068;12.116;2022-12-20T05:58:38;5.63;118.93
584;HTU21D;27024;54.068;12.116;2022-12-20T06:01:07;5.61;118.69
584;HTU21D;27024;54.068;12.116;2022-12-20T06:03:34;5.68;118.57
584;HTU21D;27024;54.068;12.116;2022-12-20T06:06:01;5.57;118.79
584;HTU21D;27024;54.068;12.116;2022-12-20T06:08:27;5.59;118.79
584;HTU21D;27024;54.068;12.116;2022-12-20T06:10:54;5.59;118.98
584;HTU21D;27024;54.068;12.116;2022-12-20T06:13:21;5.60;118.99
584;HTU21D;27024;54.068;12.116;2022-12-20T06:15:48;5.60;118.80
584;HTU21D;27024;54.068;12.116;2022-12-20T06:18:15;5.60;118.78
584;HTU21D;27024;54.068;12.116;2022-12-20T06:20:41;5.62;118.89
584;HTU21D;27024;54.068;12.116;2022-12-20T06:23:08;5.62;118.92
584;HTU21D;27024;54.068;12.116;2022-12-20T06:25:35;5.61;118.96
584;HTU21D;27024;54.068;12.116;2022-12-20T06:28:03;5.62;118.89
584;HTU21D;27024;54.068;12.116;2022-12-20T06:30:31;5.63;118.66
584;HTU21D;27024;54.068;12.116;2022-12-20T06:33:01;5.62;118.70
584;HTU21D;27024;54.068;12.116;2022-12-20T06:35:28;5.61;118.99
584;HTU21D;27024;54.068;12.116;2022-12-20T06:37:56;5.65;118.99
584;HTU21D;27024;54.068;12.116;2022-12-20T06:40:23;5.64;118.85
584;HTU21D;27024;54.068;12.116;2022-12-20T06:42:50;5.65;118.99
584;HTU21D;27024;54.068;12.116;2022-12-20T06:45:17;5.79;118.99
584;HTU21D;27024;54.068;12.116;2022-12-20T06:47:44;5.74;118.99
584;HTU21D;27024;54.068;12.116;2022-12-20T06:50:11;5.69;118.99
584;HTU21D;27024;54.068;12.116;2022-12-20T06:52:38;5.77;118.99
584;HTU21D;27024;54.068;12.116;2022-12-20T06:55:05;5.76;118.99
584;HTU21D;27024;54.068;12.116;2022-12-20T06:57:32;5.74;118.99
584;HTU21D;27024;54.068;12.116;2022-12-20T06:59:58;5.78;118.99
584;HTU21D;27024;54.068;12.116;2022-12-20T07:02:26;5.78;118.99
584;HTU21D;27024;54.068;12.116;2022-12-20T07:04:53;5.77;118.99
584;HTU21D;27024;54.068;12.116;2022-12-20T07:07:20;5.77;118.99
584;HTU21D;27024;54.068;12.116;2022-12-20T07:09:47;5.79;118.99
584;HTU21D;27024;54.068;12.116;2022-12-20T07:12:14;5.75;118.99
584;HTU21D;27024;54.068;12.116;2022-12-20T07:14:41;5.75;118.99
584;HTU21D;27024;54.068;12.116;2022-12-20T07:17:08;5.77;118.99
584;HTU21D;27024;54.068;12.116;2022-12-20T07:19:35;5.75;118.99
584;HTU21D;27024;54.068;12.116;2022-12-20T07:22:03;5.74;118.99
584;HTU21D;27024;54.068;12.116;2022-12-20T07:24:30;5.72;118.99
584;HTU21D;27024;54.068;12.116;2022-12-20T07:26:56;5.77;118.99
584;HTU21D;27024;54.068;12.116;2022-12-20T07:29:23;5.84;118.99
584;HTU21D;27024;54.068;12.116;2022-12-20T07:31:51;5.80;118.99
584;HTU21D;27024;54.068;12.116;2022-12-20T07:34:18;5.79;118.99
584;HTU21D;27024;54.068;12.116;2022-12-20T07:36:45;5.79;118.99
584;HTU21D;27024;54.068;12.116;2022-12-20T07:39:12;5.80;118.99
584;HTU21D;27024;54.068;12.116;2022-12-20T07:41:39;5.81;118.99
584;HTU21D;27024;54.068;12.116;2022-12-20T07:44:06;5.83;118.99
584;HTU21D;27024;54.068;12.116;2022-12-20T07:46:33;5.81;118.99
584;HTU21D;27024;54.068;12.116;2022-12-20T07:49:00;5.79;118.99
584;HTU21D;27024;54.068;12.116;2022-12-20T07:51:30;5.81;118.99
584;HTU21D;27024;54.068;12.116;2022-12-20T07:54:10;5.82;118.99
584;HTU21D;27024;54.068;12.116;2022-12-20T07:56:42;5.87;118.99
584;HTU21D;27024;54.068;12.116;2022-12-20T07:59:10;5.86;118.99
584;HTU21D;27024;54.068;12.116;2022-12-20T08:01:41;5.86;118.99
584;HTU21D;27024;54.068;12.116;2022-12-20T08:04:22;5.91;118.99
584;HTU21D;27024;54.068;12.116;2022-12-20T08:06:51;5.91;118.99
584;HTU21D;27024;54.068;12.116;2022-12-20T08:09:19;5.94;118.99
584;HTU21D;27024;54.068;12.116;2022-12-20T08:11:47;5.95;118.99
584;HTU21D;27024;54.068;12.116;2022-12-20T08:14:15;5.95;118.99
584;HTU21D;27024;54.068;12.116;2022-12-20T08:16:42;5.95;118.99
584;HTU21D;27024;54.068;12.116;2022-12-20T08:19:09;5.97;118.99
584;HTU21D;27024;54.068;12.116;2022-12-20T08:21:36;6.19;118.99
584;HTU21D;27024;54.068;12.116;2022-12-20T08:24:03;6.10;118.99
584;HTU21D;27024;54.068;12.116;2022-12-20T08:26:30;6.10;118.99
584;HTU21D;27024;54.068;12.116;2022-12-20T08:28:57;6.14;118.99
584;HTU21D;27024;54.068;12.116;2022-12-20T08:31:24;6.16;118.99
584;HTU21D;27024;54.068;12.116;2022-12-20T08:33:53;6.11;118.99
584;HTU21D;27024;54.068;12.116;2022-12-20T08:36:20;6.17;118.99
584;HTU21D;27024;54.068;12.116;2022-12-20T08:38:48;6.17;118.99
584;HTU21D;27024;54.068;12.116;2022-12-20T08:41:15;6.22;118.99
584;HTU21D;27024;54.068;12.116;2022-12-20T08:43:42;6.27;118.99
584;HTU21D;27024;54.068;12.116;2022-12-20T08:46:09;6.29;118.99
584;HTU21D;27024;54.068;12.116;2022-12-20T08:48:38;6.31;118.99
584;HTU21D;27024;54.068;12.116;2022-12-20T08:51:07;6.37;118.99
584;HTU21D;27024;54.068;12.116;2022-12-20T08:53:35;6.35;118.99
584;HTU21D;27024;54.068;12.116;2022-12-20T08:56:10;6.40;118.99
584;HTU21D;27024;54.068;12.116;2022-12-20T08:58:38;6.44;118.99
584;HTU21D;27024;54.068;12.116;2022-12-20T09:01:07;6.44;118.99
584;HTU21D;27024;54.068;12.116;2022-12-20T09:03:35;6.46;118.99
584;HTU21D;27024;54.068;12.116;2022-12-20T09:06:08;6.41;118.99
584;HTU21D;27024;54.068;12.116;2022-12-20T09:08:36;6.46;118.99
584;HTU21D;27024;54.068;12.116;2022-12-20T09:11:05;6.50;118.99
584;HTU21D;27024;54.068;12.116;2022-12-20T09:13:32;6.44;118.99
584;HTU21D;27024;54.068;12.116;2022-12-20T09:16:07;6.44;118.99
584;HTU21D;27024;54.068;12.116;2022-12-20T09:18:35;6.46;118.99
584;HTU21D;27024;54.068;12.116;2022-12-20T09:21:10;6.51;118.99
584;HTU21D;27024;54.068;12.116;2022-12-20T09:23:37;6.52;118.99
584;HTU21D;27024;54.068;12.116;2022-12-20T09:26:06;6.50;118.99
584;HTU21D;27024;54.068;12.116;2022-12-20T09:28:33;6.51;118.99
584;HTU21D;27024;54.068;12.116;2022-12-20T09:31:03;6.49;118.99
584;HTU21D;27024;54.068;12.116;2022-12-20T09:33:32;6.52;118.99
584;HTU21D;27024;54.068;12.116;2022-12-20T09:36:00;6.52;118.99
584;HTU21D;27024;54.068;12.116;2022-12-20T09:38:28;6.55;118.99
584;HTU21D;27024;54.068;12.116;2022-12-20T09:40:58;6.55;118.99
584;HTU21D;27024;54.068;12.116;2022-12-20T09:43:26;6.65;118.99
584;HTU21D;27024;54.068;12.116;2022-12-20T09:45:56;6.67;118.99
584;HTU21D;27024;54.068;12.116;2022-12-20T09:56:29;6.79;118.99
584;HTU21D;27024;54.068;12.116;2022-12-20T09:59:05;6.76;118.99
584;HTU21D;27024;54.068;12.116;2022-12-20T10:01:34;6.80;118.99
584;HTU21D;27024;54.068;12.116;2022-12-20T10:04:14;6.84;118.99
584;HTU21D;27024;54.068;12.116;2022-12-20T10:15:47;6.87;118.99
584;HTU21D;27024;54.068;12.116;2022-12-20T10:21:04;6.95;118.99
584;HTU21D;27024;54.068;12.116;2022-12-20T10:23:39;6.97;118.99
584;HTU21D;27024;54.068;12.116;2022-12-20T10:26:11;6.96;118.99
584;HTU21D;27024;54.068;12.116;2022-12-20T10:28:39;7.01;118.99
584;HTU21D;27024;54.068;12.116;2022-12-20T10:31:12;7.03;118.99
584;HTU21D;27024;54.068;12.116;2022-12-20T10:33:40;7.07;118.99
584;HTU21D;27024;54.068;12.116;2022-12-20T10:38:46;7.18;118.99
584;HTU21D;27024;54.068;12.116;2022-12-20T10:41:16;7.23;118.99
584;HTU21D;27024;54.068;12.116;2022-12-20T10:46:18;7.31;118.99
584;HTU21D;27024;54.068;12.116;2022-12-20T10:48:47;7.33;118.99
584;HTU21D;27024;54.068;12.116;2022-12-20T10:51:17;7.40;118.99
584;HTU21D;27024;54.068;12.116;2022-12-20T10:54:02;7.46;118.99
584;HTU21D;27024;54.068;12.116;2022-12-20T10:59:29;7.64;118.81
584;HTU21D;27024;54.068;12.116;2022-12-20T11:01:57;7.78;118.15
584;HTU21D;27024;54.068;12.116;2022-12-20T11:04:33;7.84;117.79
584;HTU21D;27024;54.068;12.116;2022-12-20T11:07:03;7.92;117.32
584;HTU21D;27024;54.068;12.116;2022-12-20T11:09:55;7.97;116.67
584;HTU21D;27024;54.068;12.116;2022-12-20T11:12:22;8.06;116.92
584;HTU21D;27024;54.068;12.116;2022-12-20T11:14:49;8.17;116.13
584;HTU21D;27024;54.068;12.116;2022-12-20T11:17:27;8.24;115.97
584;HTU21D;27024;54.068;12.116;2022-12-20T11:28:35;8.85;113.41
584;HTU21D;27024;54.068;12.116;2022-12-20T11:37:22;8.47;113.98
584;HTU21D;27024;54.068;12.116;2022-12-20T11:48:24;8.51;114.59
584;HTU21D;27024;54.068;12.116;2022-12-20T11:53:39;8.68;114.30
584;HTU21D;27024;54.068;12.116;2022-12-20T11:56:32;8.70;114.38
584;HTU21D;27024;54.068;12.116;2022-12-20T12:02:17;8.64;114.55
584;HTU21D;27024;54.068;12.116;2022-12-20T12:05:13;8.58;114.64
584;HTU21D;27024;54.068;12.116;2022-12-20T12:07:46;8.56;115.00
584;HTU21D;27024;54.068;12.116;2022-12-20T12:10:18;8.56;115.15
584;HTU21D;27024;54.068;12.116;2022-12-20T12:13:15;8.55;114.96
584;HTU21D;27024;54.068;12.116;2022-12-20T12:16:00;8.50;115.10
584;HTU21D;27024;54.068;12.116;2022-12-20T12:18:33;8.55;115.09
584;HTU21D;27024;54.068;12.116;2022-12-20T12:21:17;8.44;115.60
584;HTU21D;27024;54.068;12.116;2022-12-20T12:23:56;8.48;115.26
584;HTU21D;27024;54.068;12.116;2022-12-20T12:26:33;8.45;115.74
584;HTU21D;27024;54.068;12.116;2022-12-20T12:31:44;8.52;115.38
584;HTU21D;27024;54.068;12.116;2022-12-20T12:45:48;8.43;115.67
584;HTU21D;27024;54.068;12.116;2022-12-20T12:50:57;8.49;115.28
584;HTU21D;27024;54.068;12.116;2022-12-20T12:53:43;8.58;114.91
584;HTU21D;27024;54.068;12.116;2022-12-20T13:07:43;8.46;115.03
584;HTU21D;27024;54.068;12.116;2022-12-20T13:17:49;8.38;114.92
584;HTU21D;27024;54.068;12.116;2022-12-20T13:20:34;8.37;114.99
584;HTU21D;27024;54.068;12.116;2022-12-20T13:25:36;8.39;115.12
584;HTU21D;27024;54.068;12.116;2022-12-20T13:33:46;8.27;115.01
584;HTU21D;27024;54.068;12.116;2022-12-20T13:36:34;8.22;115.31
584;HTU21D;27024;54.068;12.116;2022-12-20T13:44:43;8.21;114.96
584;HTU21D;27024;54.068;12.116;2022-12-20T13:47:28;8.20;115.01
584;HTU21D;27024;54.068;12.116;2022-12-20T13:50:11;8.17;115.67
584;HTU21D;27024;54.068;12.116;2022-12-20T13:52:43;8.16;116.01
584;HTU21D;27024;54.068;12.116;2022-12-20T13:55:21;8.11;116.34
584;HTU21D;27024;54.068;12.116;2022-12-20T13:57:49;8.08;116.80
584;HTU21D;27024;54.068;12.116;2022-12-20T14:00:22;8.11;117.18
584;HTU21D;27024;54.068;12.116;2022-12-20T14:02:52;8.02;117.62
584;HTU21D;27024;54.068;12.116;2022-12-20T14:05:22;8.08;117.79
584;HTU21D;27024;54.068;12.116;2022-12-20T14:07:59;8.02;117.91
584;HTU21D;27024;54.068;12.116;2022-12-20T14:10:29;8.01;118.31
584;HTU21D;27024;54.068;12.116;2022-12-20T14:12:56;8.02;118.44
584;HTU21D;27024;54.068;12.116;2022-12-20T14:15:32;7.92;118.90
584;HTU21D;27024;54.068;12.116;2022-12-20T14:18:16;7.92;118.92
584;HTU21D;27024;54.068;12.116;2022-12-20T14:20:43;7.96;118.96
584;HTU21D;27024;54.068;12.116;2022-12-20T14:23:17;7.89;118.99
584;HTU21D;27024;54.068;12.116;2022-12-20T14:25:52;7.87;118.99
584;HTU21D;27024;54.068;12.116;2022-12-20T14:28:30;7.86;118.99
584;HTU21D;27024;54.068;12.116;2022-12-20T14:31:01;7.84;118.99
584;HTU21D;27024;54.068;12.116;2022-12-20T14:33:30;7.89;118.99
584;HTU21D;27024;54.068;12.116;2022-12-20T14:38:43;7.89;118.99
584;HTU21D;27024;54.068;12.116;2022-12-20T14:41:36;7.86;118.99
584;HTU21D;27024;54.068;12.116;2022-12-20T14:46:34;7.83;118.99
584;HTU21D;27024;54.068;12.116;2022-12-20T14:51:47;7.78;118.99
584;HTU21D;27024;54.068;12.116;2022-12-20T14:54:27;7.77;118.99
584;HTU21D;27024;54.068;12.116;2022-12-20T14:57:26;7.72;118.99
584;HTU21D;27024;54.068;12.116;2022-12-20T15:08:24;7.56;118.99
584;HTU21D;27024;54.068;12.116;2022-12-20T15:13:31;7.54;118.99
584;HTU21D;27024;54.068;12.116;2022-12-20T15:16:03;7.50;118.99
584;HTU21D;27024;54.068;12.116;2022-12-20T15:18:30;7.49;118.99
584;HTU21D;27024;54.068;12.116;2022-12-20T15:21:04;7.44;118.99
584;HTU21D;27024;54.068;12.116;2022-12-20T15:23:31;7.38;118.99
584;HTU21D;27024;54.068;12.116;2022-12-20T15:25:58;7.32;118.99
584;HTU21D;27024;54.068;12.116;2022-12-20T15:28:25;7.52;118.99
584;HTU21D;27024;54.068;12.116;2022-12-20T15:30:53;7.35;118.99
584;HTU21D;27024;54.068;12.116;2022-12-20T15:33:25;7.27;118.99
584;HTU21D;27024;54.068;12.116;2022-12-20T15:35:53;7.29;118.99
584;HTU21D;27024;54.068;12.116;2022-12-20T15:38:22;7.35;118.99
584;HTU21D;27024;54.068;12.116;2022-12-20T15:41:12;7.69;118.99
584;HTU21D;27024;54.068;12.116;2022-12-20T15:43:40;7.44;118.99
584;HTU21D;27024;54.068;12.116;2022-12-20T15:46:06;7.47;118.99
584;HTU21D;27024;54.068;12.116;2022-12-20T15:48:33;7.46;118.99
584;HTU21D;27024;54.068;12.116;2022-12-20T15:51:01;7.44;118.99
584;HTU21D;27024;54.068;12.116;2022-12-20T15:53:32;7.48;118.99
584;HTU21D;27024;54.068;12.116;2022-12-20T15:55:59;7.47;118.99
584;HTU21D;27024;54.068;12.116;2022-12-20T15:58:26;7.45;118.99
584;HTU21D;27024;54.068;12.116;2022-12-20T16:00:56;7.42;118.99
584;HTU21D;27024;54.068;12.116;2022-12-20T16:03:27;7.44;118.99
584;HTU21D;27024;54.068;12.116;2022-12-20T16:05:56;7.43;118.99
584;HTU21D;27024;54.068;12.116;2022-12-20T16:08:23;7.43;118.99
584;HTU21D;27024;54.068;12.116;2022-12-20T16:10:50;7.45;118.99
584;HTU21D;27024;54.068;12.116;2022-12-20T16:13:22;7.46;118.99
584;HTU21D;27024;54.068;12.116;2022-12-20T16:15:51;7.46;118.99
584;HTU21D;27024;54.068;12.116;2022-12-20T16:18:18;7.46;118.99
584;HTU21D;27024;54.068;12.116;2022-12-20T16:20:45;7.46;118.99
584;HTU21D;27024;54.068;12.116;2022-12-20T16:23:19;7.46;118.99
584;HTU21D;27024;54.068;12.116;2022-12-20T16:25:48;7.55;118.99
584;HTU21D;27024;54.068;12.116;2022-12-20T16:28:16;7.55;118.99
584;HTU21D;27024;54.068;12.116;2022-12-20T16:30:43;7.58;118.99
584;HTU21D;27024;54.068;12.116;2022-12-20T16:33:19;7.56;118.99
584;HTU21D;27024;54.068;12.116;2022-12-20T16:35:46;7.59;118.99
584;HTU21D;27024;54.068;12.116;2022-12-20T16:38:13;7.60;118.99
584;HTU21D;27024;54.068;12.116;2022-12-20T16:40:40;7.60;118.99
584;HTU21D;27024;54.068;12.116;2022-12-20T16:43:12;7.62;118.99
584;HTU21D;27024;54.068;12.116;2022-12-20T16:45:39;7.63;118.99
584;HTU21D;27024;54.068;12.116;2022-12-20T16:48:07;7.63;118.99
584;HTU21D;27024;54.068;12.116;2022-12-20T16:50:35;7.59;118.99
584;HTU21D;27024;54.068;12.116;2022-12-20T16:53:12;7.64;118.99
584;HTU21D;27024;54.068;12.116;2022-12-20T16:55:39;7.59;118.99
584;HTU21D;27024;54.068;12.116;2022-12-20T16:58:06;7.67;118.99
584;HTU21D;27024;54.068;12.116;2022-12-20T17:00:33;7.67;118.99
584;HTU21D;27024;54.068;12.116;2022-12-20T17:03:02;7.68;118.99
584;HTU21D;27024;54.068;12.116;2022-12-20T17:05:32;7.64;118.99
584;HTU21D;27024;54.068;12.116;2022-12-20T17:08:01;7.63;118.99
584;HTU21D;27024;54.068;12.116;2022-12-20T17:10:29;7.62;118.99
584;HTU21D;27024;54.068;12.116;2022-12-20T17:12:56;7.68;118.99
584;HTU21D;27024;54.068;12.116;2022-12-20T17:15:28;7.65;118.99
584;HTU21D;27024;54.068;12.116;2022-12-20T17:17:56;7.68;118.99
584;HTU21D;27024;54.068;12.116;2022-12-20T17:20:24;7.68;118.99
584;HTU21D;27024;54.068;12.116;2022-12-20T17:22:53;7.67;118.99
584;HTU21D;27024;54.068;12.116;2022-12-20T17:25:21;7.63;118.99
584;HTU21D;27024;54.068;12.116;2022-12-20T17:27:49;7.68;118.99
584;HTU21D;27024;54.068;12.116;2022-12-20T17:30:17;7.64;118.99
584;HTU21D;27024;54.068;12.116;2022-12-20T17:32:44;7.68;118.99
584;HTU21D;27024;54.068;12.116;2022-12-20T17:35:27;7.67;118.99
584;HTU21D;27024;54.068;12.116;2022-12-20T17:37:57;7.71;118.99
584;HTU21D;27024;54.068;12.116;2022-12-20T17:40:25;7.70;118.99
584;HTU21D;27024;54.068;12.116;2022-12-20T17:42:52;7.71;118.99
584;HTU21D;27024;54.068;12.116;2022-12-20T17:45:30;7.68;118.99
584;HTU21D;27024;54.068;12.116;2022-12-20T17:47:57;7.71;118.99
584;HTU21D;27024;54.068;12.116;2022-12-20T17:50:24;7.75;118.99
584;HTU21D;27024;54.068;12.116;2022-12-20T17:52:52;7.71;118.99
584;HTU21D;27024;54.068;12.116;2022-12-20T17:55:23;7.70;118.99
584;HTU21D;27024;54.068;12.116;2022-12-20T17:57:51;7.74;118.99
584;HTU21D;27024;54.068;12.116;2022-12-20T18:00:25;7.72;118.99
584;HTU21D;27024;54.068;12.116;2022-12-20T18:03:00;7.73;118.99
584;HTU21D;27024;54.068;12.116;2022-12-20T18:05:27;7.73;118.99
584;HTU21D;27024;54.068;12.116;2022-12-20T18:07:55;7.77;118.99